createdAt,value
2018-07-06T00:00:56.981Z,69.84
2018-07-06T00:04:18.934Z,69.58
2018-07-06T00:07:40.658Z,69.37
2018-07-06T00:11:02.962Z,69.34
2018-07-06T00:14:25.867Z,69.83
2018-07-06T00:17:47.647Z,70.45
2018-07-06T00:21:09.582Z,69.71
2018-07-06T00:24:31.560Z,69.92
2018-07-06T00:27:54.408Z,70.01
2018-07-06T00:31:16.931Z,69.24
2018-07-06T00:34:39.748Z,69.43
2018-07-06T00:38:02.627Z,69.12
2018-07-06T00:41:25.630Z,69.41
2018-07-06T00:44:48.393Z,69.77
2018-07-06T00:48:10.986Z,69.65
2018-07-06T00:51:33.727Z,69.32
2018-07-06T00:54:55.628Z,70.40
2018-07-06T00:58:23.098Z,69.30
2018-07-06T01:01:45.498Z,70.35
2018-07-06T01:05:08.376Z,69.84
2018-07-06T01:08:32.020Z,70.70
2018-07-06T01:11:54.307Z,70.08
2018-07-06T01:15:21.418Z,70.90
2018-07-06T01:18:44.135Z,70.57
2018-07-06T01:22:06.891Z,70.03
2018-07-06T01:25:33.806Z,70.53
2018-07-06T01:28:55.876Z,69.85
2018-07-06T01:32:18.531Z,70.24
2018-07-06T01:35:41.399Z,70.95
2018-07-06T01:39:04.377Z,70.05
2018-07-06T01:42:26.911Z,70.19
2018-07-06T01:45:48.693Z,69.82
2018-07-06T01:49:11.410Z,70.27
2018-07-06T01:52:34.148Z,71.12
2018-07-06T01:55:56.882Z,70.52
2018-07-06T01:59:18.774Z,70.81
2018-07-06T02:02:40.610Z,71.01
2018-07-06T02:06:02.546Z,70.34
2018-07-06T02:09:24.224Z,70.59
2018-07-06T02:12:46.114Z,70.26
2018-07-06T02:16:08.003Z,71.17
2018-07-06T02:19:30.700Z,69.89
2018-07-06T02:22:53.041Z,70.94
2018-07-06T02:26:15.085Z,71.47
2018-07-06T02:29:36.947Z,70.63
2018-07-06T02:32:58.768Z,70.54
2018-07-06T02:36:20.758Z,70.74
2018-07-06T02:39:42.693Z,70.70
2018-07-06T02:43:05.558Z,71.60
2018-07-06T02:46:28.347Z,70.50
2018-07-06T02:49:51.177Z,71.79
2018-07-06T02:53:13.829Z,71.82
2018-07-06T02:56:36.562Z,70.56
2018-07-06T02:59:59.516Z,71.30
2018-07-06T03:03:21.270Z,71.87
2018-07-06T03:06:44.070Z,71.77
2018-07-06T03:10:06.595Z,71.24
2018-07-06T03:13:29.145Z,71.96
2018-07-06T03:16:51.102Z,72.12
2018-07-06T03:20:13.693Z,72.07
2018-07-06T03:23:36.397Z,71.71
2018-07-06T03:26:58.250Z,71.64
2018-07-06T03:30:19.967Z,71.46
2018-07-06T03:33:41.723Z,72.43
2018-07-06T03:37:03.974Z,71.40
2018-07-06T03:40:26.857Z,72.39
2018-07-06T03:43:49.731Z,72.38
2018-07-06T03:47:12.511Z,72.37
2018-07-06T03:50:35.157Z,72.98
2018-07-06T03:53:56.848Z,72.07
2018-07-06T03:57:18.718Z,72.58
2018-07-06T04:00:40.509Z,72.39
2018-07-06T04:04:02.307Z,72.70
2018-07-06T04:07:24.030Z,73.20
2018-07-06T04:10:46.696Z,71.94
2018-07-06T04:14:09.311Z,72.76
2018-07-06T04:17:32.855Z,72.83
2018-07-06T04:20:54.639Z,72.46
2018-07-06T04:24:16.364Z,73.04
2018-07-06T04:27:39.774Z,73.03
2018-07-06T04:31:01.613Z,73.64
2018-07-06T04:34:23.342Z,73.80
2018-07-06T04:37:45.113Z,73.41
2018-07-06T04:41:06.838Z,73.44
2018-07-06T04:44:29.237Z,73.09
2018-07-06T04:47:51.881Z,73.42
2018-07-06T04:51:14.713Z,74.41
2018-07-06T04:54:37.605Z,73.72
2018-07-06T04:58:00.342Z,73.70
2018-07-06T05:01:22.098Z,73.22
2018-07-06T05:04:43.980Z,74.46
2018-07-06T05:08:06.006Z,73.78
2018-07-06T05:11:27.713Z,74.28
2018-07-06T05:14:49.554Z,73.90
2018-07-06T05:18:11.433Z,74.10
2018-07-06T05:21:33.298Z,73.49
2018-07-06T05:24:56.102Z,74.43
2018-07-06T05:28:18.036Z,73.86
2018-07-06T05:31:40.154Z,74.58
2018-07-06T05:35:03.052Z,75.67
2018-07-06T05:38:25.285Z,75.53
2018-07-06T05:41:47.209Z,74.96
2018-07-06T05:45:09.018Z,75.33
2018-07-06T05:48:31.541Z,75.39
2018-07-06T05:51:54.566Z,75.77
2018-07-06T05:55:16.951Z,75.90
2018-07-06T05:58:39.601Z,76.03
2018-07-06T06:02:01.526Z,75.12
2018-07-06T06:05:24.130Z,75.29
2018-07-06T06:08:34.854Z,75.24
2018-07-06T06:11:40.424Z,75.99
2018-07-06T06:14:45.573Z,75.56
2018-07-06T06:17:51.092Z,75.79
2018-07-06T06:20:56.247Z,75.54
2018-07-06T06:24:02.111Z,75.16
2018-07-06T06:27:07.378Z,75.70
2018-07-06T06:30:12.565Z,75.34
2018-07-06T06:33:18.529Z,75.89
2018-07-06T06:36:24.427Z,76.10
2018-07-06T06:39:29.494Z,76.02
2018-07-06T06:42:35.226Z,75.86
2018-07-06T06:45:41.042Z,75.81
2018-07-06T06:48:46.193Z,76.04
2018-07-06T06:51:52.390Z,76.08
2018-07-06T06:54:57.293Z,75.30
2018-07-06T06:58:02.838Z,76.08
2018-07-06T07:01:10.147Z,75.47
2018-07-06T07:04:15.839Z,74.97
2018-07-06T07:07:20.951Z,75.72
2018-07-06T07:10:25.950Z,75.63
2018-07-06T07:13:32.186Z,75.23
2018-07-06T07:16:37.614Z,75.06
2018-07-06T07:19:42.770Z,75.04
2018-07-06T07:22:48.264Z,74.77
2018-07-06T07:25:53.982Z,75.11
2018-07-06T07:28:59.015Z,75.93
2018-07-06T07:32:04.556Z,75.58
2018-07-06T07:35:09.872Z,75.71
2018-07-06T07:38:14.988Z,75.15
2018-07-06T07:41:20.962Z,74.46
2018-07-06T07:44:26.674Z,75.11
2018-07-06T07:47:32.818Z,75.02
2018-07-06T07:50:48.599Z,74.46
2018-07-06T07:54:04.681Z,75.07
2018-07-06T07:57:10.830Z,74.83
2018-07-06T08:00:16.302Z,75.33
2018-07-06T08:03:21.280Z,74.59
2018-07-06T08:06:26.177Z,75.38
2018-07-06T08:09:32.142Z,74.62
2018-07-06T08:12:39.211Z,74.98
2018-07-06T08:15:44.946Z,74.62
2018-07-06T08:18:50.849Z,74.86
2018-07-06T08:21:55.964Z,75.40
2018-07-06T08:25:01.973Z,74.78
2018-07-06T08:28:07.448Z,74.97
2018-07-06T08:31:12.558Z,74.62
2018-07-06T08:34:28.937Z,74.50
2018-07-06T08:37:47.186Z,73.27
2018-07-06T08:40:51.981Z,73.39
2018-07-06T08:43:57.316Z,73.88
2018-07-06T08:47:02.158Z,73.24
2018-07-06T08:50:08.422Z,73.00
2018-07-06T08:53:15.698Z,74.03
2018-07-06T08:56:21.422Z,72.97
2018-07-06T08:59:26.227Z,72.89
2018-07-06T09:02:32.110Z,73.20
2018-07-06T09:05:37.926Z,73.14
2018-07-06T09:08:43.938Z,71.66
2018-07-06T09:11:49.037Z,71.99
2018-07-06T09:14:54.886Z,71.48
2018-07-06T09:18:00.423Z,70.70
2018-07-06T09:21:05.859Z,70.85
2018-07-06T09:24:12.211Z,70.20
2018-07-06T09:27:17.923Z,70.20
2018-07-06T09:30:23.540Z,67.56
2018-07-06T09:33:29.561Z,69.50
2018-07-06T09:36:34.792Z,68.25
2018-07-06T09:39:41.106Z,68.37
2018-07-06T09:42:46.234Z,68.68
2018-07-06T09:45:51.347Z,67.53
2018-07-06T09:48:57.201Z,67.14
2018-07-06T09:52:02.736Z,66.67
2018-07-06T09:55:07.818Z,63.25
2018-07-06T09:58:12.899Z,64.01
2018-07-06T10:01:18.753Z,64.50
2018-07-06T10:04:25.158Z,62.03
2018-07-06T10:07:31.150Z,61.60
2018-07-06T10:10:36.978Z,58.81
2018-07-06T10:13:42.334Z,58.07
2018-07-06T10:16:47.522Z,59.61
2018-07-06T10:19:52.688Z,60.44
2018-07-06T10:22:57.932Z,61.34
2018-07-06T10:26:03.433Z,60.49
2018-07-06T10:29:19.910Z,59.91
2018-07-06T10:32:26.787Z,60.73
2018-07-06T10:35:32.238Z,60.60
2018-07-06T10:38:37.572Z,60.11
2018-07-06T10:41:43.250Z,59.48
2018-07-06T10:44:48.405Z,59.88
2018-07-06T10:47:53.868Z,58.01
2018-07-06T10:50:59.976Z,58.47
2018-07-06T10:54:05.071Z,60.03
2018-07-06T10:57:10.258Z,60.02
2018-07-06T11:00:16.155Z,58.40
2018-07-06T11:03:22.191Z,58.12
2018-07-06T11:06:28.235Z,57.64
2018-07-06T11:09:33.331Z,57.54
2018-07-06T11:12:38.417Z,57.19
2018-07-06T11:15:43.716Z,56.79
2018-07-06T11:18:49.956Z,58.32
2018-07-06T11:21:55.700Z,57.96
2018-07-06T11:25:02.117Z,57.60
2018-07-06T11:28:08.378Z,55.30
2018-07-06T11:31:14.318Z,54.67
2018-07-06T11:34:19.449Z,56.58
2018-07-06T11:37:24.673Z,56.75
2018-07-06T11:40:30.160Z,57.71
2018-07-06T11:43:36.286Z,56.07
2018-07-06T11:46:41.385Z,56.62
2018-07-06T11:49:47.183Z,56.53
2018-07-06T11:52:52.328Z,55.14
2018-07-06T11:55:57.775Z,55.72
2018-07-06T11:59:04.062Z,55.25
2018-07-06T12:02:11.007Z,53.62
2018-07-06T12:05:16.742Z,54.71
2018-07-06T12:08:22.023Z,55.02
2018-07-06T12:11:27.373Z,55.14
2018-07-06T12:14:34.770Z,54.27
2018-07-06T12:17:40.506Z,53.63
2018-07-06T12:20:45.690Z,53.52
2018-07-06T12:23:51.901Z,53.83
2018-07-06T12:26:58.293Z,52.49
2018-07-06T12:30:04.123Z,53.88
2018-07-06T12:33:08.985Z,54.41
2018-07-06T12:36:14.754Z,53.46
2018-07-06T12:39:20.493Z,53.94
2018-07-06T12:42:25.687Z,53.33
2018-07-06T12:45:31.471Z,53.89
2018-07-06T12:48:38.274Z,53.06
2018-07-06T12:51:43.693Z,53.33
2018-07-06T12:54:48.777Z,53.62
2018-07-06T12:57:54.238Z,53.51
2018-07-06T13:00:59.163Z,53.78
2018-07-06T13:04:04.251Z,52.30
2018-07-06T13:07:09.686Z,53.44
2018-07-06T13:10:14.782Z,53.45
2018-07-06T13:13:20.582Z,51.99
2018-07-06T13:16:26.299Z,51.40
2018-07-06T13:19:32.417Z,52.57
2018-07-06T13:22:37.522Z,52.54
2018-07-06T13:25:42.842Z,52.02
2018-07-06T13:28:48.482Z,51.74
2018-07-06T13:31:55.181Z,50.36
2018-07-06T13:35:00.914Z,50.77
2018-07-06T13:38:07.039Z,50.42
2018-07-06T13:41:13.059Z,50.99
2018-07-06T13:44:19.016Z,51.65
2018-07-06T13:47:24.088Z,50.51
2018-07-06T13:50:29.230Z,49.02
2018-07-06T13:53:34.350Z,50.28
2018-07-06T13:56:39.840Z,49.38
2018-07-06T13:59:46.110Z,50.04
2018-07-06T14:02:52.309Z,49.29
2018-07-06T14:05:58.098Z,50.14
2018-07-06T14:09:03.268Z,49.61
2018-07-06T14:12:09.210Z,49.65
2018-07-06T14:15:15.370Z,50.37
2018-07-06T14:18:20.414Z,48.64
2018-07-06T14:21:26.839Z,49.02
2018-07-06T14:24:31.986Z,49.43
2018-07-06T14:27:37.413Z,48.36
2018-07-06T14:30:42.556Z,49.68
2018-07-06T14:33:47.977Z,48.58
2018-07-06T14:36:53.091Z,47.85
2018-07-06T14:39:58.351Z,48.13
2018-07-06T14:43:03.678Z,48.72
2018-07-06T14:46:09.622Z,46.17
2018-07-06T14:49:14.761Z,47.21
2018-07-06T14:52:22.332Z,48.30
2018-07-06T14:55:28.397Z,48.21
2018-07-06T14:58:34.754Z,47.54
2018-07-06T15:01:40.624Z,47.48
2018-07-06T15:04:46.586Z,46.54
2018-07-06T15:07:52.532Z,46.66
2018-07-06T15:10:57.622Z,46.21
2018-07-06T15:14:02.756Z,47.46
2018-07-06T15:17:08.442Z,47.52
2018-07-06T15:20:15.871Z,45.40
2018-07-06T15:23:21.598Z,46.42
2018-07-06T15:26:27.054Z,46.02
2018-07-06T15:29:33.009Z,47.00
2018-07-06T15:32:38.114Z,45.53
2018-07-06T15:35:43.630Z,46.49
2018-07-06T15:38:49.873Z,45.58
2018-07-06T15:41:57.045Z,45.85
2018-07-06T15:45:02.770Z,46.18
2018-07-06T15:48:08.182Z,46.16
2018-07-06T15:51:14.510Z,46.52
2018-07-06T15:54:20.908Z,45.35
2018-07-06T15:57:26.540Z,45.37
2018-07-06T16:00:32.334Z,45.28
2018-07-06T16:03:37.463Z,45.06
2018-07-06T16:06:43.084Z,45.50
2018-07-06T16:09:48.242Z,45.56
2018-07-06T16:12:53.353Z,45.66
2018-07-06T16:15:59.695Z,45.92
2018-07-06T16:19:05.127Z,46.00
2018-07-06T16:22:10.449Z,45.54
2018-07-06T16:25:15.764Z,45.30
2018-07-06T16:28:20.891Z,45.65
2018-07-06T16:31:26.029Z,44.55
2018-07-06T16:34:31.354Z,44.29
2018-07-06T16:37:37.707Z,45.39
2018-07-06T16:40:43.368Z,45.81
2018-07-06T16:43:49.479Z,44.81
2018-07-06T16:46:55.855Z,46.17
2018-07-06T16:50:02.137Z,45.96
2018-07-06T16:53:08.122Z,45.79
2018-07-06T16:56:13.214Z,46.62
2018-07-06T16:59:18.493Z,46.96
2018-07-06T17:02:23.598Z,46.23
2018-07-06T17:05:28.455Z,47.09
2018-07-06T17:08:34.326Z,46.20
2018-07-06T17:11:39.770Z,46.49
2018-07-06T17:14:45.853Z,47.22
2018-07-06T17:17:51.556Z,47.94
2018-07-06T17:20:57.736Z,46.86
2018-07-06T17:24:03.914Z,47.34
2018-07-06T17:27:09.742Z,48.10
2018-07-06T17:30:14.831Z,47.49
2018-07-06T17:33:20.264Z,47.17
2018-07-06T17:36:25.477Z,48.41
2018-07-06T17:39:30.900Z,47.83
2018-07-06T17:42:36.910Z,48.72
2018-07-06T17:45:41.986Z,48.32
2018-07-06T17:48:48.554Z,48.64
2018-07-06T17:51:54.854Z,49.46
2018-07-06T17:55:00.454Z,49.17
2018-07-06T17:58:05.903Z,49.08
2018-07-06T18:01:12.125Z,49.53
2018-07-06T18:04:17.885Z,49.59
2018-07-06T18:07:23.917Z,50.28
2018-07-06T18:10:29.210Z,50.67
2018-07-06T18:13:34.910Z,50.03
2018-07-06T18:16:40.809Z,50.31
2018-07-06T18:19:46.528Z,50.18
2018-07-06T18:22:52.496Z,50.38
2018-07-06T18:25:58.782Z,50.65
2018-07-06T18:29:04.702Z,51.35
2018-07-06T18:32:09.836Z,50.64
2018-07-06T18:35:14.962Z,51.25
2018-07-06T18:38:20.054Z,51.37
2018-07-06T18:41:26.050Z,52.08
2018-07-06T18:44:32.045Z,51.45
2018-07-06T18:47:38.356Z,52.41
2018-07-06T18:50:43.814Z,52.50
2018-07-06T18:53:49.698Z,51.99
2018-07-06T18:56:54.854Z,52.73
2018-07-06T19:00:00.834Z,53.31
2018-07-06T19:03:06.426Z,53.21
2018-07-06T19:06:11.997Z,52.62
2018-07-06T19:09:17.894Z,53.42
2018-07-06T19:12:23.722Z,53.06
2018-07-06T19:15:29.753Z,54.17
2018-07-06T19:18:35.981Z,54.37
2018-07-06T19:21:42.027Z,54.56
2018-07-06T19:24:47.475Z,55.01
2018-07-06T19:27:53.858Z,54.65
2018-07-06T19:30:59.838Z,54.39
2018-07-06T19:34:05.986Z,54.23
2018-07-06T19:37:11.371Z,54.46
2018-07-06T19:40:17.277Z,54.60
2018-07-06T19:43:23.303Z,56.28
2018-07-06T19:46:29.532Z,55.30
2018-07-06T19:49:35.573Z,56.23
2018-07-06T19:52:40.432Z,56.60
2018-07-06T19:55:46.031Z,56.64
2018-07-06T19:58:51.151Z,56.26
2018-07-06T20:01:57.083Z,56.99
2018-07-06T20:05:03.091Z,55.74
2018-07-06T20:08:08.179Z,55.87
2018-07-06T20:11:13.283Z,57.04
2018-07-06T20:14:18.790Z,56.15
2018-07-06T20:17:24.119Z,56.76
2018-07-06T20:20:29.226Z,57.04
2018-07-06T20:23:34.317Z,57.26
2018-07-06T20:26:40.403Z,57.16
2018-07-06T20:29:45.934Z,57.05
2018-07-06T20:32:52.058Z,57.13
2018-07-06T20:35:57.494Z,57.97
2018-07-06T20:39:03.747Z,57.74
2018-07-06T20:42:09.159Z,58.04
2018-07-06T20:45:14.220Z,58.94
2018-07-06T20:48:19.350Z,58.21
2018-07-06T20:51:25.350Z,58.81
2018-07-06T20:54:31.287Z,58.38
2018-07-06T20:57:38.639Z,59.22
2018-07-06T21:00:44.694Z,58.45
2018-07-06T21:03:51.180Z,59.33
2018-07-06T21:06:56.909Z,60.14
2018-07-06T21:10:02.058Z,59.03
2018-07-06T21:13:07.506Z,58.82
2018-07-06T21:16:13.456Z,59.50
2018-07-06T21:19:20.035Z,59.49
2018-07-06T21:22:25.990Z,59.71
2018-07-06T21:25:31.511Z,60.09
2018-07-06T21:28:36.586Z,60.75
2018-07-06T21:31:41.401Z,60.85
2018-07-06T21:34:46.904Z,60.21
2018-07-06T21:37:52.923Z,61.26
2018-07-06T21:40:58.849Z,61.56
2018-07-06T21:44:03.957Z,60.37
2018-07-06T21:47:09.065Z,60.55
2018-07-06T21:50:14.717Z,61.47
2018-07-06T21:53:19.797Z,61.76
2018-07-06T21:56:25.237Z,60.56
2018-07-06T21:59:30.310Z,61.12
2018-07-06T22:02:35.685Z,61.81
2018-07-06T22:05:42.366Z,61.44
2018-07-06T22:08:48.222Z,62.25
2018-07-06T22:11:53.382Z,61.74
2018-07-06T22:14:59.422Z,61.71
2018-07-06T22:18:05.361Z,62.52
2018-07-06T22:21:10.485Z,63.26
2018-07-06T22:24:15.930Z,62.83
2018-07-06T22:27:21.959Z,62.15
2018-07-06T22:30:27.893Z,63.12
2018-07-06T22:33:32.995Z,63.34
2018-07-06T22:36:38.276Z,63.96
2018-07-06T22:39:43.408Z,64.06
2018-07-06T22:42:49.745Z,64.32
2018-07-06T22:45:54.555Z,64.24
2018-07-06T22:49:00.174Z,64.35
2018-07-06T22:52:06.473Z,64.05
2018-07-06T22:55:12.617Z,65.13
2018-07-06T22:58:18.963Z,64.60
2018-07-06T23:01:25.004Z,64.40
2018-07-06T23:04:30.691Z,64.43
2018-07-06T23:07:36.682Z,65.09
2018-07-06T23:10:42.205Z,65.06
2018-07-06T23:13:47.026Z,65.38
2018-07-06T23:16:52.112Z,65.02
2018-07-06T23:19:57.211Z,65.12
2018-07-06T23:23:07.377Z,65.62
2018-07-06T23:26:12.497Z,65.78
2018-07-06T23:29:17.601Z,65.84
2018-07-06T23:32:22.708Z,66.72
2018-07-06T23:35:27.598Z,66.31
2018-07-06T23:38:32.685Z,66.08
2018-07-06T23:41:39.102Z,66.83
2018-07-06T23:44:44.793Z,66.89
2018-07-06T23:47:50.099Z,67.51
2018-07-06T23:50:56.013Z,67.46
2018-07-06T23:54:02.122Z,67.42
2018-07-06T23:57:07.214Z,67.96
